Wetterdaten: Woche 29.11.04 - 05.12.04 (KW49)
Datum Zeit Temperatur Luftfeuchte Luftdruck Niederschlag Wind Richtung Taupunkt Windchill
29.11.2004 00:00 3.6 C 99 % 1014.5 hPa 1.2 l/m 0.0 km/h (0 Bft) N 3.4 C 3.6 C
29.11.2004 01:00 3.6 C 100 % 1013.9 hPa 1.2 l/m 0.0 km/h (0 Bft) N 3.5 C 3.6 C
29.11.2004 02:00 3.6 C 100 % 1013.9 hPa 0.9 l/m 0.0 km/h (0 Bft) N 3.6 C 3.6 C
29.11.2004 03:00 3.7 C 100 % 1013.4 hPa 0.0 l/m 0.5 km/h (0 Bft) W-NW 3.6 C 3.6 C
29.11.2004 04:00 3.4 C 100 % 1012.9 hPa 0.0 l/m 1.7 km/h (1 Bft) O-SO 3.4 C 3.1 C
29.11.2004 05:00 3.7 C 100 % 1012.9 hPa 0.3 l/m 2.2 km/h (1 Bft) O-SO 3.7 C 3.2 C
29.11.2004 06:00 3.8 C 100 % 1013.9 hPa 0.6 l/m 3.4 km/h (1 Bft) O-SO 3.8 C 3.1 C
29.11.2004 07:00 3.8 C 100 % 1013.9 hPa 0.0 l/m 0.0 km/h (0 Bft) N 3.8 C 3.8 C
29.11.2004 08:00 3.1 C 100 % 1014.0 hPa 0.0 l/m 1.3 km/h (1 Bft) O 3.1 C 2.8 C
29.11.2004 09:00 3.5 C 100 % 1014.4 hPa 0.0 l/m 0.6 km/h (0 Bft) O 3.5 C 3.5 C
29.11.2004 10:00 4.3 C 100 % 1014.6 hPa 0.0 l/m 0.1 km/h (0 Bft) O 4.3 C 4.3 C
29.11.2004 11:00 5.1 C 100 % 1013.7 hPa 0.0 l/m 0.3 km/h (0 Bft) O 5.1 C 5.0 C
29.11.2004 12:00 5.7 C 98 % 1013.6 hPa 0.0 l/m 0.5 km/h (0 Bft) O 5.4 C 5.6 C
29.11.2004 13:00 6.1 C 95 % 1013.1 hPa 0.0 l/m 0.0 km/h (0 Bft) N 5.3 C 6.1 C
29.11.2004 14:00 6.3 C 92 % 1012.5 hPa 0.0 l/m 0.1 km/h (0 Bft) O 5.1 C 6.3 C
29.11.2004 15:00 6.4 C 89 % 1012.5 hPa 0.0 l/m 0.2 km/h (0 Bft) O 4.7 C 6.4 C
29.11.2004 16:00 6.1 C 86 % 1012.5 hPa 0.0 l/m 0.4 km/h (0 Bft) N-NO 4.0 C 6.1 C
29.11.2004 17:00 5.8 C 84 % 1012.6 hPa 0.0 l/m 1.0 km/h (0 Bft) NO 3.3 C 5.7 C
29.11.2004 18:00 5.2 C 82 % 1012.6 hPa 0.0 l/m 1.8 km/h (1 Bft) O-NO 2.4 C 4.9 C
29.11.2004 19:00 4.9 C 83 % 1012.7 hPa 0.0 l/m 1.2 km/h (1 Bft) NO 2.3 C 4.7 C
29.11.2004 20:00 5.1 C 82 % 1012.5 hPa 0.0 l/m 2.5 km/h (1 Bft) O 2.2 C 4.7 C
29.11.2004 21:00 5.1 C 80 % 1011.9 hPa 0.0 l/m 2.2 km/h (1 Bft) O 1.9 C 4.7 C
29.11.2004 22:00 4.8 C 82 % 1011.7 hPa 0.0 l/m 1.8 km/h (1 Bft) O-SO 2.0 C 4.5 C
29.11.2004 23:00 5.6 C 76 % 1011.5 hPa 0.0 l/m 5.2 km/h (1 Bft) NO 1.7 C 4.7 C
30.11.2004 00:00 5.4 C 75 % 1011.6 hPa 0.0 l/m 4.1 km/h (1 Bft) O 1.3 C 4.6 C
30.11.2004 01:00 5.0 C 75 % 1011.6 hPa 0.0 l/m 6.9 km/h (2 Bft) O 1.0 C 3.6 C
30.11.2004 02:00 4.7 C 77 % 1011.7 hPa 0.0 l/m 6.4 km/h (2 Bft) O 1.0 C 3.5 C
30.11.2004 03:00 4.6 C 77 % 1011.0 hPa 0.0 l/m 3.3 km/h (1 Bft) NO 1.0 C 4.0 C
30.11.2004 04:00 4.5 C 78 % 1010.7 hPa 0.0 l/m 0.4 km/h (0 Bft) NO 1.0 C 4.5 C
30.11.2004 05:00 4.4 C 79 % 1010.7 hPa 0.0 l/m 1.1 km/h (0 Bft) O-NO 1.0 C 4.2 C
30.11.2004 06:00 4.2 C 79 % 1010.7 hPa 0.0 l/m 0.0 km/h (0 Bft) N 0.9 C 4.2 C
30.11.2004 07:00 4.2 C 78 % 1010.6 hPa 0.0 l/m 2.9 km/h (1 Bft) NO 0.7 C 3.6 C
30.11.2004 08:00 4.3 C 76 % 1010.7 hPa 0.0 l/m 2.1 km/h (1 Bft) O 0.5 C 4.1 C
30.11.2004 09:00 4.3 C 76 % 1010.4 hPa 0.0 l/m 0.2 km/h (0 Bft) O 0.5 C 4.3 C
30.11.2004 10:00 4.4 C 76 % 1009.8 hPa 0.0 l/m 1.5 km/h (1 Bft) O-NO 0.6 C 4.1 C
30.11.2004 11:00 4.7 C 75 % 1009.6 hPa 0.0 l/m 0.2 km/h (0 Bft) NO 0.6 C 4.7 C
30.11.2004 12:00 4.8 C 74 % 1009.6 hPa 0.0 l/m 0.0 km/h (0 Bft) N 0.6 C 4.8 C
30.11.2004 13:00 4.7 C 76 % 1009.6 hPa 0.0 l/m 0.2 km/h (0 Bft) N-NO 0.8 C 4.7 C
30.11.2004 14:00 4.6 C 76 % 1009.6 hPa 0.0 l/m 0.2 km/h (0 Bft) NO 0.7 C 4.6 C
30.11.2004 15:00 4.4 C 79 % 1009.6 hPa 0.0 l/m 0.5 km/h (0 Bft) O-NO 1.0 C 4.3 C
30.11.2004 16:00 4.2 C 80 % 1009.8 hPa 0.0 l/m 1.4 km/h (1 Bft) O 0.9 C 4.0 C
30.11.2004 17:00 3.9 C 81 % 1010.1 hPa 0.0 l/m 1.0 km/h (0 Bft) O 1.0 C 3.7 C
30.11.2004 18:00 3.7 C 85 % 1010.6 hPa 0.0 l/m 0.0 km/h (0 Bft) N 1.5 C 3.7 C
30.11.2004 19:00 3.6 C 87 % 1010.2 hPa 0.0 l/m 2.8 km/h (1 Bft) O 1.6 C 2.9 C
30.11.2004 20:00 3.1 C 89 % 1009.9 hPa 0.0 l/m 2.1 km/h (1 Bft) O 1.5 C 2.6 C
30.11.2004 21:00 3.1 C 90 % 1010.1 hPa 0.0 l/m 1.8 km/h (1 Bft) O 1.6 C 2.6 C
30.11.2004 22:00 3.3 C 90 % 1010.8 hPa 0.0 l/m 0.3 km/h (0 Bft) O 1.8 C 3.3 C
30.11.2004 23:00 2.9 C 90 % 1010.5 hPa 0.0 l/m 0.4 km/h (0 Bft) O 1.5 C 2.9 C
01.12.2004 00:00 3.1 C 91 % 1010.3 hPa 0.0 l/m 1.3 km/h (1 Bft) O-SO 1.9 C 2.9 C
01.12.2004 01:00 2.9 C 92 % 1009.8 hPa 0.0 l/m 0.0 km/h (0 Bft) N 1.7 C 2.9 C
01.12.2004 02:00 2.8 C 92 % 1010.0 hPa 0.0 l/m 0.0 km/h (0 Bft) N 1.7 C 2.8 C
01.12.2004 03:00 3.0 C 93 % 1009.8 hPa 0.0 l/m 0.2 km/h (0 Bft) O-SO 2.0 C 3.0 C
01.12.2004 04:00 2.1 C 92 % 1010.0 hPa 0.0 l/m 0.0 km/h (0 Bft) N 0.9 C 2.1 C
01.12.2004 05:00 0.7 C 94 % 1010.2 hPa 0.0 l/m 1.8 km/h (1 Bft) O-SO -0.2 C 0.1 C
01.12.2004 06:00 -0.1 C 96 % 1010.3 hPa 0.0 l/m 4.9 km/h (1 Bft) O -0.7 C -1.8 C
01.12.2004 07:00 0.4 C 99 % 1011.2 hPa 0.0 l/m 6.6 km/h (2 Bft) O-SO 0.2 C -1.6 C
01.12.2004 08:00 1.3 C 100 % 1011.1 hPa 0.0 l/m 1.6 km/h (1 Bft) O 1.2 C 0.8 C
01.12.2004 09:00 2.2 C 97 % 1011.0 hPa 0.0 l/m 0.0 km/h (0 Bft) N 1.9 C 2.2 C
01.12.2004 10:00 2.9 C 95 % 1011.0 hPa 0.0 l/m 0.1 km/h (0 Bft) O 2.2 C 2.9 C
01.12.2004 11:00 3.0 C 93 % 1010.9 hPa 1.2 l/m 0.5 km/h (0 Bft) O 2.0 C 2.9 C
01.12.2004 12:00 1.2 C 94 % 1011.0 hPa 3.7 l/m 0.4 km/h (0 Bft) N 0.3 C 1.1 C
01.12.2004 13:00 1.5 C 95 % 1009.8 hPa 0.6 l/m 3.2 km/h (1 Bft) NW 0.8 C 0.7 C
01.12.2004 14:00 1.9 C 95 % 1009.9 hPa 0.0 l/m 0.2 km/h (0 Bft) N 1.2 C 1.9 C
01.12.2004 15:00 2.1 C 96 % 1009.9 hPa 0.0 l/m 0.4 km/h (0 Bft) O-NO 1.4 C 2.1 C
01.12.2004 16:00 2.2 C 96 % 1009.9 hPa 0.0 l/m 0.2 km/h (0 Bft) O-NO 1.7 C 2.2 C
01.12.2004 17:00 2.3 C 98 % 1009.9 hPa 0.0 l/m 0.0 km/h (0 Bft) N 1.9 C 2.3 C
01.12.2004 18:00 2.3 C 98 % 1009.9 hPa 0.0 l/m 0.1 km/h (0 Bft) O-NO 2.0 C 2.3 C
01.12.2004 19:00 2.3 C 98 % 1010.9 hPa 0.0 l/m 0.3 km/h (0 Bft) O-NO 2.1 C 2.3 C
01.12.2004 20:00 2.2 C 99 % 1011.0 hPa 0.0 l/m 2.1 km/h (1 Bft) O 2.1 C 1.8 C
01.12.2004 21:00 2.2 C 99 % 1011.9 hPa 0.0 l/m 0.2 km/h (0 Bft) O 2.0 C 2.2 C
01.12.2004 22:00 2.2 C 99 % 1012.0 hPa 0.0 l/m 0.0 km/h (0 Bft) N 2.0 C 2.2 C
01.12.2004 23:00 2.3 C 98 % 1012.0 hPa 0.0 l/m 1.5 km/h (1 Bft) O 2.1 C 1.9 C
02.12.2004 00:00 2.1 C 98 % 1012.0 hPa 0.0 l/m 0.4 km/h (0 Bft) O-SO 1.8 C 2.0 C
02.12.2004 01:00 2.0 C 97 % 1012.1 hPa 0.0 l/m 1.0 km/h (0 Bft) O-SO 1.6 C 1.7 C
02.12.2004 02:00 2.0 C 97 % 1012.1 hPa 0.0 l/m 1.3 km/h (1 Bft) O-SO 1.5 C 1.8 C
02.12.2004 03:00 1.8 C 95 % 1012.1 hPa 0.0 l/m 0.5 km/h (0 Bft) O-SO 1.1 C 1.8 C
02.12.2004 04:00 1.5 C 95 % 1012.1 hPa 0.0 l/m 3.2 km/h (1 Bft) O-SO 0.8 C 0.7 C
02.12.2004 05:00 1.2 C 96 % 1011.4 hPa 0.0 l/m 0.7 km/h (0 Bft) O-SO 0.6 C 1.2 C
02.12.2004 06:00 1.0 C 96 % 1011.2 hPa 0.0 l/m 0.5 km/h (0 Bft) O 0.4 C 0.8 C
02.12.2004 07:00 0.8 C 96 % 1011.3 hPa 0.0 l/m 0.9 km/h (0 Bft) NO 0.3 C 0.6 C
02.12.2004 08:00 0.6 C 96 % 1011.4 hPa 0.0 l/m 2.7 km/h (1 Bft) O-SO 0.0 C 0.0 C
02.12.2004 09:00 0.7 C 95 % 1011.9 hPa 1.5 l/m 0.7 km/h (0 Bft) O-SO 0.1 C 0.5 C
02.12.2004 10:00 1.2 C 97 % 1012.2 hPa 0.9 l/m 0.5 km/h (0 Bft) O-SO 0.7 C 1.2 C
02.12.2004 11:00 2.9 C 95 % 1011.6 hPa 0.0 l/m 2.2 km/h (1 Bft) O-SO 2.2 C 2.4 C
02.12.2004 12:00 3.6 C 89 % 1010.8 hPa 0.0 l/m 2.2 km/h (1 Bft) W 1.8 C 3.2 C
02.12.2004 13:00 3.6 C 88 % 1010.9 hPa 0.0 l/m 1.2 km/h (1 Bft) W 1.8 C 3.4 C
02.12.2004 14:00 3.6 C 87 % 1010.9 hPa 0.0 l/m 0.6 km/h (0 Bft) O-SO 1.6 C 3.4 C
02.12.2004 15:00 3.6 C 86 % 1011.8 hPa 0.0 l/m 0.0 km/h (0 Bft) N 1.4 C 3.6 C
02.12.2004 16:00 3.4 C 88 % 1011.9 hPa 0.0 l/m 0.0 km/h (0 Bft) N 1.6 C 3.4 C
02.12.2004 17:00 3.2 C 90 % 1012.4 hPa 0.6 l/m 1.0 km/h (0 Bft) O-SO 1.7 C 3.0 C
02.12.2004 18:00 2.5 C 94 % 1012.7 hPa 0.0 l/m 5.0 km/h (1 Bft) O-SO 1.6 C 1.2 C
02.12.2004 19:00 1.9 C 96 % 1013.5 hPa 0.0 l/m 7.2 km/h (2 Bft) O-SO 1.3 C -0.0 C
02.12.2004 20:00 1.8 C 98 % 1013.9 hPa 0.0 l/m 2.7 km/h (1 Bft) O-SO 1.6 C 1.1 C
02.12.2004 21:00 1.7 C 99 % 1014.8 hPa 0.0 l/m 2.5 km/h (1 Bft) O-SO 1.6 C 1.0 C
02.12.2004 22:00 2.2 C 100 % 1015.3 hPa 0.0 l/m 0.0 km/h (0 Bft) N 2.2 C 2.2 C
02.12.2004 23:00 2.2 C 100 % 1016.2 hPa 0.0 l/m 2.8 km/h (1 Bft) O-SO 2.2 C 1.5 C
03.12.2004 00:00 2.0 C 100 % 1016.2 hPa 0.0 l/m 6.6 km/h (2 Bft) O-SO 2.0 C 0.4 C
03.12.2004 01:00 1.2 C 99 % 1016.6 hPa 0.0 l/m 3.3 km/h (1 Bft) O-SO 1.1 C 0.4 C
03.12.2004 02:00 1.5 C 100 % 1017.3 hPa 0.0 l/m 6.3 km/h (2 Bft) O-SO 1.5 C -0.3 C
03.12.2004 03:00 1.6 C 100 % 1017.3 hPa 0.0 l/m 1.8 km/h (1 Bft) O 1.5 C 1.0 C
03.12.2004 04:00 1.7 C 100 % 1017.6 hPa 0.0 l/m 1.5 km/h (1 Bft) O 1.7 C 1.5 C
03.12.2004 05:00 1.8 C 100 % 1018.3 hPa 0.0 l/m 0.8 km/h (0 Bft) O 1.8 C 1.7 C
03.12.2004 06:00 1.7 C 99 % 1018.5 hPa 0.3 l/m 0.2 km/h (0 Bft) S 1.5 C 1.7 C
03.12.2004 07:00 1.7 C 100 % 1019.4 hPa 0.9 l/m 0.1 km/h (0 Bft) N 1.6 C 1.7 C
03.12.2004 08:00 1.8 C 100 % 1019.8 hPa 0.3 l/m 0.0 km/h (0 Bft) N 1.8 C 1.8 C
03.12.2004 09:00 2.3 C 99 % 1020.3 hPa 0.0 l/m 0.7 km/h (0 Bft) O-SO 2.2 C 2.3 C
03.12.2004 10:00 3.0 C 98 % 1020.8 hPa 0.0 l/m 0.0 km/h (0 Bft) N 2.8 C 3.0 C
03.12.2004 11:00 4.2 C 94 % 1021.1 hPa 0.0 l/m 0.0 km/h (0 Bft) N 3.4 C 4.2 C
03.12.2004 12:00 4.9 C 88 % 1021.0 hPa 0.0 l/m 0.0 km/h (0 Bft) N 3.1 C 4.9 C
03.12.2004 13:00 5.6 C 84 % 1020.9 hPa 0.0 l/m 1.1 km/h (0 Bft) O 3.2 C 5.6 C
03.12.2004 14:00 5.7 C 84 % 1020.9 hPa 0.0 l/m 2.0 km/h (1 Bft) O 3.3 C 5.5 C
03.12.2004 15:00 5.6 C 88 % 1021.1 hPa 0.0 l/m 1.2 km/h (1 Bft) W-NW 3.8 C 5.4 C
03.12.2004 16:00 4.4 C 89 % 1022.1 hPa 0.0 l/m 2.8 km/h (1 Bft) O-SO 2.8 C 3.8 C
03.12.2004 17:00 3.4 C 94 % 1022.7 hPa 0.0 l/m 2.1 km/h (1 Bft) O-SO 2.5 C 2.9 C
03.12.2004 18:00 3.8 C 97 % 1023.2 hPa 0.0 l/m 1.4 km/h (1 Bft) O-SO 3.3 C 3.6 C
03.12.2004 19:00 4.1 C 97 % 1023.2 hPa 0.0 l/m 0.7 km/h (0 Bft) O-SO 3.7 C 4.0 C
03.12.2004 20:00 4.1 C 97 % 1024.2 hPa 0.0 l/m 5.5 km/h (1 Bft) O-SO 3.7 C 3.0 C
03.12.2004 21:00 4.1 C 97 % 1024.8 hPa 0.0 l/m 2.5 km/h (1 Bft) O-SO 3.6 C 3.6 C
03.12.2004 22:00 4.1 C 96 % 1025.3 hPa 0.0 l/m 0.7 km/h (0 Bft) O-NO 3.6 C 4.0 C
03.12.2004 23:00 4.1 C 95 % 1025.3 hPa 0.0 l/m 1.2 km/h (1 Bft) O 3.3 C 3.8 C
04.12.2004 00:00 4.1 C 95 % 1025.4 hPa 0.0 l/m 1.1 km/h (0 Bft) O 3.4 C 4.0 C
04.12.2004 01:00 4.0 C 95 % 1026.1 hPa 0.0 l/m 2.9 km/h (1 Bft) O 3.2 C 3.6 C
04.12.2004 02:00 3.7 C 96 % 1026.4 hPa 0.0 l/m 5.9 km/h (2 Bft) O 3.2 C 2.3 C
04.12.2004 03:00 3.5 C 97 % 1026.4 hPa 0.0 l/m 5.7 km/h (1 Bft) O-SO 3.1 C 2.4 C
04.12.2004 04:00 3.4 C 97 % 1026.8 hPa 0.0 l/m 4.3 km/h (1 Bft) O-SO 2.9 C 2.4 C
04.12.2004 05:00 3.3 C 97 % 1027.4 hPa 0.0 l/m 1.1 km/h (1 Bft) O-SO 2.9 C 3.2 C
04.12.2004 06:00 3.0 C 97 % 1027.5 hPa 0.0 l/m 2.7 km/h (1 Bft) O-SO 2.5 C 2.3 C
04.12.2004 07:00 3.0 C 97 % 1027.5 hPa 0.0 l/m 1.0 km/h (0 Bft) O-SO 2.6 C 2.8 C
04.12.2004 08:00 3.3 C 95 % 1028.1 hPa 0.0 l/m 2.9 km/h (1 Bft) O-SO 2.6 C 2.7 C
04.12.2004 09:00 3.7 C 92 % 1028.5 hPa 0.0 l/m 9.8 km/h (2 Bft) O-SO 2.6 C 1.4 C
04.12.2004 10:00 3.9 C 91 % 1028.4 hPa 0.0 l/m 14.8 km/h (3 Bft) O-SO 2.5 C 0.4 C
04.12.2004 11:00 4.4 C 89 % 1028.3 hPa 0.0 l/m 9.9 km/h (2 Bft) O-SO 2.7 C 2.1 C
04.12.2004 12:00 4.9 C 84 % 1028.0 hPa 0.0 l/m 13.7 km/h (3 Bft) O-SO 2.5 C 1.9 C
04.12.2004 13:00 5.5 C 81 % 1027.2 hPa 0.0 l/m 13.0 km/h (3 Bft) O-SO 2.5 C 2.7 C
04.12.2004 14:00 5.9 C 81 % 1027.1 hPa 0.0 l/m 4.5 km/h (1 Bft) O-SO 2.8 C 5.0 C
04.12.2004 15:00 5.7 C 82 % 1027.1 hPa 0.0 l/m 0.1 km/h (0 Bft) N 2.9 C 5.7 C
04.12.2004 16:00 5.3 C 84 % 1027.2 hPa 0.0 l/m 2.2 km/h (1 Bft) NO 2.7 C 4.9 C
04.12.2004 17:00 5.1 C 84 % 1028.0 hPa 0.0 l/m 1.4 km/h (1 Bft) O 2.6 C 4.9 C
04.12.2004 18:00 4.9 C 82 % 1028.3 hPa 0.0 l/m 6.6 km/h (2 Bft) O-SO 2.1 C 3.5 C
04.12.2004 19:00 4.6 C 80 % 1029.0 hPa 0.0 l/m 11.0 km/h (2 Bft) O-SO 1.6 C 2.3 C
04.12.2004 20:00 4.5 C 81 % 1029.4 hPa 0.0 l/m 6.2 km/h (2 Bft) O 1.5 C 3.1 C
04.12.2004 21:00 4.1 C 85 % 1029.4 hPa 0.0 l/m 1.9 km/h (1 Bft) O-SO 1.8 C 3.8 C
04.12.2004 22:00 4.2 C 87 % 1029.3 hPa 0.0 l/m 0.0 km/h (0 Bft) N 2.3 C 4.2 C
04.12.2004 23:00 4.4 C 87 % 1028.5 hPa 0.0 l/m 0.0 km/h (0 Bft) N 2.5 C 4.4 C
05.12.2004 00:00 4.2 C 89 % 1028.8 hPa 0.0 l/m 0.0 km/h (0 Bft) N 2.6 C 4.2 C
05.12.2004 01:00 4.3 C 89 % 1028.4 hPa 0.0 l/m 2.7 km/h (1 Bft) O-SO 2.7 C 3.7 C
05.12.2004 02:00 4.2 C 86 % 1028.4 hPa 0.0 l/m 3.9 km/h (1 Bft) O-SO 2.1 C 3.5 C
05.12.2004 03:00 4.1 C 86 % 1028.4 hPa 0.0 l/m 1.0 km/h (0 Bft) O-NO 1.9 C 4.0 C
05.12.2004 04:00 4.1 C 85 % 1028.4 hPa 0.0 l/m 0.1 km/h (0 Bft) O-NO 1.7 C 4.1 C
05.12.2004 05:00 4.0 C 86 % 1028.4 hPa 0.0 l/m 1.4 km/h (1 Bft) O-NO 1.8 C 3.8 C
05.12.2004 06:00 3.7 C 87 % 1028.5 hPa 0.0 l/m 0.6 km/h (0 Bft) O 1.8 C 3.6 C
05.12.2004 07:00 3.6 C 89 % 1028.5 hPa 0.0 l/m 0.0 km/h (0 Bft) N 1.9 C 3.6 C
05.12.2004 08:00 3.6 C 89 % 1028.5 hPa 0.0 l/m 0.0 km/h (0 Bft) N 1.9 C 3.6 C
05.12.2004 09:00 3.8 C 87 % 1029.1 hPa 0.0 l/m 0.0 km/h (0 Bft) N 1.8 C 3.8 C
05.12.2004 10:00 4.0 C 82 % 1029.4 hPa 0.0 l/m 0.0 km/h (0 Bft) N 1.2 C 4.0 C
05.12.2004 11:00 4.1 C 80 % 1029.4 hPa 0.0 l/m 0.1 km/h (0 Bft) NO 1.0 C 4.1 C
05.12.2004 12:00 4.2 C 78 % 1029.3 hPa 0.0 l/m 0.4 km/h (0 Bft) W 0.7 C 4.2 C
05.12.2004 13:00 4.1 C 78 % 1028.4 hPa 0.0 l/m 0.4 km/h (0 Bft) O 0.7 C 4.1 C
05.12.2004 14:00 3.9 C 77 % 1028.4 hPa 0.0 l/m 0.8 km/h (0 Bft) O 0.2 C 3.8 C
05.12.2004 15:00 3.8 C 76 % 1028.4 hPa 0.0 l/m 0.3 km/h (0 Bft) O -0.0 C 3.8 C
05.12.2004 16:00 3.7 C 76 % 1028.5 hPa 0.0 l/m 0.2 km/h (0 Bft) O -0.1 C 3.7 C
05.12.2004 17:00 3.4 C 77 % 1029.1 hPa 0.0 l/m 2.5 km/h (1 Bft) O-SO -0.2 C 2.9 C
05.12.2004 18:00 3.4 C 76 % 1029.5 hPa 0.0 l/m 4.8 km/h (1 Bft) O-SO -0.4 C 2.3 C
05.12.2004 19:00 3.3 C 76 % 1029.7 hPa 0.0 l/m 0.5 km/h (0 Bft) O -0.5 C 3.2 C
05.12.2004 20:00 3.3 C 74 % 1030.3 hPa 0.0 l/m 2.4 km/h (1 Bft) O-SO -0.8 C 2.8 C
05.12.2004 21:00 3.2 C 74 % 1030.6 hPa 0.0 l/m 0.2 km/h (0 Bft) N -0.9 C 3.2 C
05.12.2004 22:00 3.2 C 75 % 1030.7 hPa 0.0 l/m 0.8 km/h (0 Bft) N-NO -0.8 C 3.0 C
05.12.2004 23:00 3.2 C 73 % 1031.2 hPa 0.0 l/m 9.4 km/h (2 Bft) O-SO -1.1 C 0.9 C
Min-Datum _ 01.12.04 05.12.04 01.12.04 - 29.11.04 - 05.12.04 01.12.04
_ Min-Zeit 05:56 23:47 13:35 - 00:02 - 23:47 06:29
Minimum _ -0.5 C 71 % 1008.9 hPa - 0.0 km/h (0 Bft) - -1.5 C -3.6 C
Max-Datum _ 29.11.04 29.11.04 05.12.04 01.12.04 04.12.04 - 29.11.04 29.11.04
_ Max-Zeit 15:05 01:32 23:26 11:00 18:05 - 12:59 15:05
Maximum _ 6.6 C 100 % 1031.7 hPa 3.7 l/m 24.4 km/h
O-SO (4 Bft)
- 5.7 C 6.6 C
Durchschnitt _ 3.5 C 90 % 1017.7 hPa #14.6 l/m 2.0 km/h (1 Bft) O-SO 1.9 C 3.1 C

Durchschnitt Minimum Temp.3.2 C
Durchschnitt Maximum Temp.3.7 C
© Kaiko 2004